createdAt,value
2018-09-27T00:04:39.518Z,24
2018-09-27T00:14:38.732Z,24
2018-09-27T00:24:37.956Z,24
2018-09-27T00:34:37.172Z,23.9
2018-09-27T00:44:36.394Z,23.9
2018-09-27T00:54:35.605Z,23.9
2018-09-27T01:04:34.827Z,23.9
2018-09-27T01:14:34.039Z,23.9
2018-09-27T01:24:33.265Z,23.9
2018-09-27T01:34:32.487Z,23.9
2018-09-27T01:44:31.698Z,23.9
2018-09-27T01:54:30.911Z,23.9
2018-09-27T02:04:30.128Z,23.9
2018-09-27T02:14:29.352Z,23.9
2018-09-27T02:24:28.569Z,23.9
2018-09-27T02:34:27.786Z,23.9
2018-09-27T02:44:27.005Z,23.8
2018-09-27T02:54:26.219Z,23.8
2018-09-27T03:04:25.437Z,23.8
2018-09-27T03:14:24.651Z,23.8
2018-09-27T03:24:23.875Z,23.8
2018-09-27T03:34:23.091Z,23.8
2018-09-27T03:44:22.318Z,23.8
2018-09-27T03:54:21.533Z,23.7
2018-09-27T04:04:20.751Z,23.7
2018-09-27T04:14:19.963Z,23.6
2018-09-27T04:24:19.182Z,23.6
2018-09-27T04:34:18.406Z,23.6
2018-09-27T04:44:17.620Z,23.6
2018-09-27T04:54:16.837Z,23.6
2018-09-27T05:04:16.063Z,23.6
2018-09-27T05:14:15.281Z,23.6
2018-09-27T05:24:14.493Z,23.7
2018-09-27T05:34:13.715Z,23.8
2018-09-27T05:44:12.929Z,23.9
2018-09-27T05:54:12.146Z,23.9
2018-09-27T06:04:11.371Z,24
2018-09-27T06:14:10.591Z,24
2018-09-27T06:24:09.808Z,24
2018-09-27T06:34:09.029Z,24.1
2018-09-27T06:44:08.260Z,24.1
2018-09-27T06:54:07.461Z,24.1
2018-09-27T07:04:06.674Z,24.2
2018-09-27T07:14:05.898Z,24.3
2018-09-27T07:24:05.109Z,24.3
2018-09-27T07:34:04.331Z,24.4
2018-09-27T07:44:03.545Z,24.5
2018-09-27T07:54:02.762Z,24.7
2018-09-27T08:04:02.020Z,24.8
2018-09-27T08:14:01.199Z,24.8
2018-09-27T08:24:00.498Z,24.8
2018-09-27T08:33:59.640Z,24.8
2018-09-27T08:43:58.857Z,24.8
2018-09-27T08:53:58.070Z,24.8
2018-09-27T09:03:57.357Z,24.8
2018-09-27T09:13:56.554Z,24.7
2018-09-27T09:23:55.722Z,24.7
2018-09-27T09:33:54.944Z,24.6
2018-09-27T09:43:54.164Z,24.6
2018-09-27T09:53:53.381Z,24.6
2018-09-27T10:03:52.596Z,24.6
2018-09-27T10:13:51.806Z,24.6
2018-09-27T10:23:51.023Z,24.6
2018-09-27T10:33:50.239Z,24.6
2018-09-27T10:43:49.462Z,24.5
2018-09-27T10:53:48.672Z,24.5
2018-09-27T11:03:47.888Z,24.5
2018-09-27T11:13:47.108Z,24.4
2018-09-27T11:23:46.325Z,24.4
2018-09-27T11:33:45.544Z,24.4
2018-09-27T11:43:44.753Z,24.4
2018-09-27T11:53:43.974Z,24.4
2018-09-27T12:03:43.192Z,24.3
2018-09-27T12:13:42.406Z,24.3
2018-09-27T12:23:41.621Z,24.3
2018-09-27T12:33:40.839Z,24.3
2018-09-27T12:43:40.049Z,24.2
2018-09-27T12:53:39.269Z,24.1
2018-09-27T13:03:38.492Z,24.1
2018-09-27T13:13:37.704Z,24.1
2018-09-27T13:23:36.923Z,24.1
2018-09-27T13:33:36.143Z,24
2018-09-27T13:43:35.357Z,24
2018-09-27T13:53:34.586Z,24
2018-09-27T14:03:33.844Z,23.9
2018-09-27T14:13:33.009Z,23.9
2018-09-27T14:23:32.227Z,23.9
2018-09-27T14:33:31.441Z,23.9
2018-09-27T14:43:30.657Z,23.9
2018-09-27T14:53:29.890Z,23.9
2018-09-27T15:03:29.088Z,23.9
2018-09-27T15:13:28.312Z,23.9
2018-09-27T15:23:27.562Z,23.9
2018-09-27T15:33:26.740Z,23.9
2018-09-27T15:43:25.955Z,23.9
2018-09-27T15:53:25.173Z,23.8
2018-09-27T16:03:24.401Z,23.8
2018-09-27T16:13:23.609Z,23.8
2018-09-27T16:23:22.830Z,23.9
2018-09-27T16:33:22.078Z,24
2018-09-27T16:43:21.255Z,24.1
2018-09-27T16:53:20.472Z,24.1
2018-09-27T17:03:19.687Z,24
2018-09-27T17:13:18.904Z,23.9
2018-09-27T17:23:18.131Z,23.9
2018-09-27T17:33:17.421Z,23.9
2018-09-27T17:43:16.555Z,23.9
2018-09-27T17:53:15.884Z,23.9
2018-09-27T18:03:15.001Z,23.8
2018-09-27T18:13:14.265Z,23.8
2018-09-27T18:23:13.420Z,23.8
2018-09-27T18:33:12.663Z,23.8
2018-09-27T18:43:12.061Z,23.8
2018-09-27T18:53:11.074Z,23.8
2018-09-27T19:03:10.295Z,23.8
2018-09-27T19:13:09.539Z,23.8
2018-09-27T19:23:08.732Z,23.8
2018-09-27T19:33:07.961Z,23.9
2018-09-27T19:43:07.168Z,24
2018-09-27T19:53:06.391Z,24.1
2018-09-27T20:03:05.609Z,24.2
2018-09-27T20:13:04.832Z,24.2
2018-09-27T20:23:04.127Z,24.2
2018-09-27T20:33:03.269Z,24.2
2018-09-27T20:43:02.486Z,24.2
2018-09-27T20:53:01.707Z,24.1
2018-09-27T21:03:00.952Z,24.2
2018-09-27T21:13:00.144Z,24.1
2018-09-27T21:22:59.363Z,24.2
2018-09-27T21:32:58.585Z,24.2
2018-09-27T21:42:57.802Z,24.2
2018-09-27T21:52:57.033Z,24.2
2018-09-27T22:02:56.251Z,24.2
2018-09-27T22:12:55.466Z,24.2
2018-09-27T22:22:54.684Z,24.2
2018-09-27T22:32:53.952Z,24.2
2018-09-27T22:42:53.120Z,24.2
2018-09-27T22:52:52.338Z,24.2
2018-09-27T23:02:51.555Z,24.2
2018-09-27T23:12:50.771Z,24.2
2018-09-27T23:22:49.974Z,24.2
2018-09-27T23:32:49.192Z,24.2
2018-09-27T23:42:48.408Z,24.1
2018-09-27T23:52:47.626Z,24.2
